sensor_id;sensor_type;location;lat;lon;timestamp;pressure;altitude;pressure_sealevel;temperature;humidity
18678;BME280;9469;51.114;13.914;2024-02-04T00:04:06;99066.28;;;8.80;100.00
18678;BME280;9469;51.114;13.914;2024-02-04T00:09:18;99052.22;;;8.79;100.00
18678;BME280;9469;51.114;13.914;2024-02-04T00:14:28;99045.91;;;8.75;100.00
18678;BME280;9469;51.114;13.914;2024-02-04T00:19:33;99046.63;;;8.81;100.00
18678;BME280;9469;51.114;13.914;2024-02-04T00:24:43;99035.06;;;8.72;100.00
18678;BME280;9469;51.114;13.914;2024-02-04T00:29:48;99028.72;;;8.68;100.00
18678;BME280;9469;51.114;13.914;2024-02-04T00:34:55;99041.44;;;8.71;100.00
18678;BME280;9469;51.114;13.914;2024-02-04T00:40:04;99040.06;;;8.73;100.00
18678;BME280;9469;51.114;13.914;2024-02-04T00:45:10;99046.53;;;8.62;100.00
18678;BME280;9469;51.114;13.914;2024-02-04T00:50:15;99046.63;;;8.52;100.00
18678;BME280;9469;51.114;13.914;2024-02-04T00:55:23;99059.06;;;8.56;100.00
18678;BME280;9469;51.114;13.914;2024-02-04T01:00:29;99041.81;;;8.59;100.00
18678;BME280;9469;51.114;13.914;2024-02-04T01:05:34;99049.16;;;8.67;100.00
18678;BME280;9469;51.114;13.914;2024-02-04T01:10:43;99048.03;;;8.73;100.00
18678;BME280;9469;51.114;13.914;2024-02-04T01:15:49;99043.63;;;8.63;100.00
18678;BME280;9469;51.114;13.914;2024-02-04T01:20:54;99054.13;;;8.74;100.00
18678;BME280;9469;51.114;13.914;2024-02-04T01:26:03;99059.69;;;8.77;100.00
18678;BME280;9469;51.114;13.914;2024-02-04T01:31:08;99046.97;;;8.74;100.00
18678;BME280;9469;51.114;13.914;2024-02-04T01:36:14;99047.03;;;8.64;100.00
18678;BME280;9469;51.114;13.914;2024-02-04T01:41:22;99022.19;;;8.55;100.00
18678;BME280;9469;51.114;13.914;2024-02-04T01:46:30;99038.72;;;8.47;100.00
18678;BME280;9469;51.114;13.914;2024-02-04T01:51:35;99041.38;;;8.47;100.00
18678;BME280;9469;51.114;13.914;2024-02-04T01:56:46;99042.16;;;8.47;100.00
18678;BME280;9469;51.114;13.914;2024-02-04T02:01:54;99038.09;;;8.55;100.00
18678;BME280;9469;51.114;13.914;2024-02-04T02:07:00;99028.63;;;8.49;100.00
18678;BME280;9469;51.114;13.914;2024-02-04T02:12:12;99031.78;;;8.51;100.00
18678;BME280;9469;51.114;13.914;2024-02-04T02:17:23;99018.53;;;8.51;100.00
18678;BME280;9469;51.114;13.914;2024-02-04T02:22:38;99016.91;;;8.55;100.00
18678;BME280;9469;51.114;13.914;2024-02-04T02:27:51;99017.44;;;8.57;100.00
18678;BME280;9469;51.114;13.914;2024-02-04T02:32:56;99021.44;;;8.54;100.00
18678;BME280;9469;51.114;13.914;2024-02-04T02:38:11;99028.59;;;8.54;100.00
18678;BME280;9469;51.114;13.914;2024-02-04T02:43:23;99035.72;;;8.58;100.00
18678;BME280;9469;51.114;13.914;2024-02-04T02:48:29;99030.81;;;8.42;100.00
18678;BME280;9469;51.114;13.914;2024-02-04T02:53:34;99015.50;;;8.34;100.00
18678;BME280;9469;51.114;13.914;2024-02-04T02:58:42;99019.72;;;8.35;100.00
18678;BME280;9469;51.114;13.914;2024-02-04T03:03:47;99005.94;;;8.38;100.00
18678;BME280;9469;51.114;13.914;2024-02-04T03:08:53;99007.59;;;8.29;100.00
18678;BME280;9469;51.114;13.914;2024-02-04T03:14:01;99006.53;;;8.25;100.00
18678;BME280;9469;51.114;13.914;2024-02-04T03:19:07;99014.81;;;8.18;100.00
18678;BME280;9469;51.114;13.914;2024-02-04T03:24:13;98989.59;;;8.26;100.00
18678;BME280;9469;51.114;13.914;2024-02-04T03:29:21;99002.88;;;8.21;100.00
18678;BME280;9469;51.114;13.914;2024-02-04T03:34:26;99023.72;;;8.32;100.00
18678;BME280;9469;51.114;13.914;2024-02-04T03:39:31;99032.66;;;8.03;100.00
18678;BME280;9469;51.114;13.914;2024-02-04T03:44:39;99032.66;;;8.03;100.00
18678;BME280;9469;51.114;13.914;2024-02-04T03:49:44;99029.25;;;7.97;100.00
18678;BME280;9469;51.114;13.914;2024-02-04T03:54:50;99037.78;;;7.89;100.00
18678;BME280;9469;51.114;13.914;2024-02-04T03:59:58;99032.50;;;7.89;100.00
18678;BME280;9469;51.114;13.914;2024-02-04T04:05:12;99040.38;;;7.94;100.00
18678;BME280;9469;51.114;13.914;2024-02-04T04:10:17;99028.53;;;7.86;100.00
18678;BME280;9469;51.114;13.914;2024-02-04T04:15:25;99004.19;;;7.84;100.00
18678;BME280;9469;51.114;13.914;2024-02-04T04:20:30;99010.81;;;7.82;100.00
18678;BME280;9469;51.114;13.914;2024-02-04T04:25:35;99008.41;;;7.85;100.00
18678;BME280;9469;51.114;13.914;2024-02-04T04:30:43;99003.31;;;7.94;100.00
18678;BME280;9469;51.114;13.914;2024-02-04T04:35:48;99014.38;;;8.01;100.00
18678;BME280;9469;51.114;13.914;2024-02-04T04:40:54;99012.53;;;8.02;100.00
18678;BME280;9469;51.114;13.914;2024-02-04T04:46:01;99011.47;;;8.03;100.00
18678;BME280;9469;51.114;13.914;2024-02-04T04:51:07;99002.97;;;8.06;100.00
18678;BME280;9469;51.114;13.914;2024-02-04T04:56:13;99005.34;;;8.07;100.00
18678;BME280;9469;51.114;13.914;2024-02-04T05:01:21;98993.97;;;8.07;100.00
18678;BME280;9469;51.114;13.914;2024-02-04T05:06:26;98985.44;;;8.10;100.00
18678;BME280;9469;51.114;13.914;2024-02-04T05:11:31;98961.38;;;8.06;100.00
18678;BME280;9469;51.114;13.914;2024-02-04T05:16:39;98941.50;;;8.04;100.00
18678;BME280;9469;51.114;13.914;2024-02-04T05:21:47;98957.44;;;7.98;100.00
18678;BME280;9469;51.114;13.914;2024-02-04T05:26:52;98947.34;;;8.01;100.00
18678;BME280;9469;51.114;13.914;2024-02-04T05:32:00;98946.81;;;8.04;100.00
18678;BME280;9469;51.114;13.914;2024-02-04T05:37:06;98945.19;;;8.08;100.00
18678;BME280;9469;51.114;13.914;2024-02-04T05:42:12;98919.50;;;8.08;100.00
18678;BME280;9469;51.114;13.914;2024-02-04T05:47:20;98925.03;;;8.12;100.00
18678;BME280;9469;51.114;13.914;2024-02-04T05:52:28;98923.47;;;8.06;100.00
18678;BME280;9469;51.114;13.914;2024-02-04T05:57:34;98917.03;;;8.17;100.00
18678;BME280;9469;51.114;13.914;2024-02-04T06:02:43;98916.25;;;8.16;100.00
18678;BME280;9469;51.114;13.914;2024-02-04T06:07:48;98912.84;;;8.11;100.00
18678;BME280;9469;51.114;13.914;2024-02-04T06:12:54;98909.13;;;8.12;100.00
18678;BME280;9469;51.114;13.914;2024-02-04T06:18:05;98919.16;;;8.15;100.00
18678;BME280;9469;51.114;13.914;2024-02-04T06:23:13;98911.00;;;8.11;100.00
18678;BME280;9469;51.114;13.914;2024-02-04T06:28:21;98918.63;;;8.18;100.00
18678;BME280;9469;51.114;13.914;2024-02-04T06:33:29;98901.97;;;8.12;100.00
18678;BME280;9469;51.114;13.914;2024-02-04T06:38:37;98903.97;;;8.25;100.00
18678;BME280;9469;51.114;13.914;2024-02-04T06:43:42;98893.75;;;8.14;100.00
18678;BME280;9469;51.114;13.914;2024-02-04T06:48:51;98895.59;;;8.13;100.00
18678;BME280;9469;51.114;13.914;2024-02-04T06:53:56;98897.44;;;8.13;100.00
18678;BME280;9469;51.114;13.914;2024-02-04T06:59:03;98901.69;;;8.14;100.00
18678;BME280;9469;51.114;13.914;2024-02-04T07:04:11;98918.63;;;8.18;100.00
18678;BME280;9469;51.114;13.914;2024-02-04T07:09:16;98920.44;;;8.22;100.00
18678;BME280;9469;51.114;13.914;2024-02-04T07:14:21;98884.88;;;8.23;100.00
18678;BME280;9469;51.114;13.914;2024-02-04T07:19:29;98905.03;;;8.29;100.00
18678;BME280;9469;51.114;13.914;2024-02-04T07:24:34;98897.63;;;8.26;100.00
18678;BME280;9469;51.114;13.914;2024-02-04T07:29:40;98881.44;;;8.28;100.00
18678;BME280;9469;51.114;13.914;2024-02-04T07:34:48;98882.13;;;8.38;100.00
18678;BME280;9469;51.114;13.914;2024-02-04T07:39:56;98881.34;;;8.38;100.00
18678;BME280;9469;51.114;13.914;2024-02-04T07:45:02;98883.50;;;8.36;100.00
18678;BME280;9469;51.114;13.914;2024-02-04T07:50:14;98862.69;;;8.48;100.00
18678;BME280;9469;51.114;13.914;2024-02-04T07:55:19;98870.91;;;8.46;100.00
18678;BME280;9469;51.114;13.914;2024-02-04T08:00:24;98873.22;;;8.53;100.00
18678;BME280;9469;51.114;13.914;2024-02-04T08:05:34;98863.22;;;8.68;100.00
18678;BME280;9469;51.114;13.914;2024-02-04T08:10:40;98865.25;;;8.77;100.00
18678;BME280;9469;51.114;13.914;2024-02-04T08:15:45;98860.34;;;9.07;100.00
18678;BME280;9469;51.114;13.914;2024-02-04T08:20:53;98854.59;;;9.00;100.00
18678;BME280;9469;51.114;13.914;2024-02-04T08:25:59;98850.38;;;8.99;100.00
18678;BME280;9469;51.114;13.914;2024-02-04T08:31:04;98841.50;;;9.09;100.00
18678;BME280;9469;51.114;13.914;2024-02-04T08:36:15;98844.66;;;9.11;100.00
18678;BME280;9469;51.114;13.914;2024-02-04T08:41:20;98851.59;;;9.25;100.00
18678;BME280;9469;51.114;13.914;2024-02-04T08:46:25;98852.31;;;9.31;100.00
18678;BME280;9469;51.114;13.914;2024-02-04T08:51:33;98852.31;;;9.31;100.00
18678;BME280;9469;51.114;13.914;2024-02-04T08:56:39;98868.47;;;9.34;100.00
18678;BME280;9469;51.114;13.914;2024-02-04T09:01:44;98867.75;;;9.29;100.00
18678;BME280;9469;51.114;13.914;2024-02-04T09:06:51;98849.81;;;9.39;100.00
18678;BME280;9469;51.114;13.914;2024-02-04T09:11:57;98877.34;;;9.44;100.00
18678;BME280;9469;51.114;13.914;2024-02-04T09:17:02;98860.44;;;9.39;100.00
18678;BME280;9469;51.114;13.914;2024-02-04T09:22:14;98867.47;;;9.30;100.00
18678;BME280;9469;51.114;13.914;2024-02-04T09:27:20;98870.47;;;9.24;100.00
18678;BME280;9469;51.114;13.914;2024-02-04T09:32:25;98858.94;;;9.15;100.00
18678;BME280;9469;51.114;13.914;2024-02-04T09:37:33;98843.56;;;9.12;100.00
18678;BME280;9469;51.114;13.914;2024-02-04T09:42:38;98856.34;;;9.28;100.00
18678;BME280;9469;51.114;13.914;2024-02-04T09:47:45;98867.47;;;9.30;100.00
18678;BME280;9469;51.114;13.914;2024-02-04T09:52:58;98862.09;;;9.35;100.00
18678;BME280;9469;51.114;13.914;2024-02-04T09:58:04;98865.31;;;9.32;100.00
18678;BME280;9469;51.114;13.914;2024-02-04T10:03:09;98854.75;;;9.27;100.00
18678;BME280;9469;51.114;13.914;2024-02-04T10:08:17;98864.81;;;9.30;100.00
18678;BME280;9469;51.114;13.914;2024-02-04T10:13:23;98846.88;;;9.22;100.00
18678;BME280;9469;51.114;13.914;2024-02-04T10:18:29;98841.84;;;9.21;100.00
18678;BME280;9469;51.114;13.914;2024-02-04T10:23:38;98840.47;;;9.23;100.00
18678;BME280;9469;51.114;13.914;2024-02-04T10:28:44;98831.59;;;9.14;100.00
18678;BME280;9469;51.114;13.914;2024-02-04T10:33:50;98840.41;;;9.10;100.00
18678;BME280;9469;51.114;13.914;2024-02-04T10:38:58;98827.63;;;9.12;100.00
18678;BME280;9469;51.114;13.914;2024-02-04T10:44:05;98808.38;;;9.06;100.00
18678;BME280;9469;51.114;13.914;2024-02-04T10:49:14;98800.84;;;8.95;100.00
18678;BME280;9469;51.114;13.914;2024-02-04T10:54:22;98793.84;;;8.80;100.00
18678;BME280;9469;51.114;13.914;2024-02-04T10:59:31;98777.00;;;8.71;100.00
18678;BME280;9469;51.114;13.914;2024-02-04T11:04:38;98780.53;;;8.85;100.00
18678;BME280;9469;51.114;13.914;2024-02-04T11:09:46;98776.09;;;8.99;100.00
18678;BME280;9469;51.114;13.914;2024-02-04T11:14:55;98771.16;;;8.93;100.00
18678;BME280;9469;51.114;13.914;2024-02-04T11:20:14;98741.81;;;9.03;100.00
18678;BME280;9469;51.114;13.914;2024-02-04T11:25:44;98725.13;;;9.02;100.00
18678;BME280;9469;51.114;13.914;2024-02-04T11:30:50;98723.03;;;8.99;100.00
18678;BME280;9469;51.114;13.914;2024-02-04T11:35:59;98734.13;;;9.01;100.00
18678;BME280;9469;51.114;13.914;2024-02-04T11:41:08;98737.78;;;9.05;100.00
18678;BME280;9469;51.114;13.914;2024-02-04T11:46:16;98735.94;;;9.06;100.00
18678;BME280;9469;51.114;13.914;2024-02-04T11:51:22;98720.81;;;9.06;100.00
18678;BME280;9469;51.114;13.914;2024-02-04T11:56:31;98717.84;;;9.08;100.00
18678;BME280;9469;51.114;13.914;2024-02-04T12:01:38;98716.50;;;9.10;100.00
18678;BME280;9469;51.114;13.914;2024-02-04T12:06:49;98716.78;;;9.09;100.00
18678;BME280;9469;51.114;13.914;2024-02-04T12:12:00;98709.28;;;8.97;100.00
18678;BME280;9469;51.114;13.914;2024-02-04T12:17:07;98708.09;;;9.03;100.00
18678;BME280;9469;51.114;13.914;2024-02-04T12:22:14;98694.72;;;8.95;100.00
18678;BME280;9469;51.114;13.914;2024-02-04T12:27:22;98695.50;;;8.95;100.00
18678;BME280;9469;51.114;13.914;2024-02-04T12:32:30;98671.47;;;8.87;100.00
18678;BME280;9469;51.114;13.914;2024-02-04T12:37:35;98678.00;;;8.94;100.00
18678;BME280;9469;51.114;13.914;2024-02-04T12:42:52;98665.53;;;8.95;100.00
18678;BME280;9469;51.114;13.914;2024-02-04T12:47:58;98652.56;;;8.93;100.00
18678;BME280;9469;51.114;13.914;2024-02-04T12:53:07;98655.72;;;8.95;100.00
18678;BME280;9469;51.114;13.914;2024-02-04T12:58:20;98666.66;;;9.07;100.00
18678;BME280;9469;51.114;13.914;2024-02-04T13:03:26;98658.69;;;9.07;100.00
18678;BME280;9469;51.114;13.914;2024-02-04T13:08:31;98662.31;;;9.11;100.00
18678;BME280;9469;51.114;13.914;2024-02-04T13:13:39;98639.94;;;9.17;100.00
18678;BME280;9469;51.114;13.914;2024-02-04T13:18:52;98647.69;;;9.14;100.00
18678;BME280;9469;51.114;13.914;2024-02-04T13:23:57;98657.16;;;9.20;100.00
18678;BME280;9469;51.114;13.914;2024-02-04T13:29:05;98653.03;;;9.27;100.00
18678;BME280;9469;51.114;13.914;2024-02-04T13:34:17;98644.47;;;9.30;100.00
18678;BME280;9469;51.114;13.914;2024-02-04T13:39:23;98646.25;;;9.21;100.00
18678;BME280;9469;51.114;13.914;2024-02-04T13:44:35;98665.22;;;9.28;100.00
18678;BME280;9469;51.114;13.914;2024-02-04T13:49:41;98676.53;;;9.34;100.00
18678;BME280;9469;51.114;13.914;2024-02-04T13:54:50;98682.72;;;9.29;100.00
18678;BME280;9469;51.114;13.914;2024-02-04T13:59:58;98691.38;;;9.35;100.00
18678;BME280;9469;51.114;13.914;2024-02-04T14:05:07;98692.25;;;9.30;100.00
18678;BME280;9469;51.114;13.914;2024-02-04T14:10:14;98701.91;;;9.26;100.00
18678;BME280;9469;51.114;13.914;2024-02-04T14:15:23;98695.06;;;9.20;100.00
18678;BME280;9469;51.114;13.914;2024-02-04T14:20:28;98694.72;;;9.27;100.00
18678;BME280;9469;51.114;13.914;2024-02-04T14:25:33;98691.56;;;9.25;100.00
18678;BME280;9469;51.114;13.914;2024-02-04T14:30:50;98670.03;;;9.26;100.00
18678;BME280;9469;51.114;13.914;2024-02-04T14:36:00;98695.59;;;9.22;100.00
18678;BME280;9469;51.114;13.914;2024-02-04T14:41:12;98685.75;;;9.23;100.00
18678;BME280;9469;51.114;13.914;2024-02-04T14:46:20;98684.97;;;9.22;100.00
18678;BME280;9469;51.114;13.914;2024-02-04T14:51:26;98693.50;;;9.19;100.00
18678;BME280;9469;51.114;13.914;2024-02-04T14:56:37;98694.09;;;9.16;100.00
18678;BME280;9469;51.114;13.914;2024-02-04T15:01:47;98698.53;;;9.21;100.00
18678;BME280;9469;51.114;13.914;2024-02-04T15:06:53;98704.00;;;9.11;100.00
18678;BME280;9469;51.114;13.914;2024-02-04T15:11:59;98721.56;;;9.07;100.00
18678;BME280;9469;51.114;13.914;2024-02-04T15:17:08;98718.28;;;9.15;100.00
18678;BME280;9469;51.114;13.914;2024-02-04T15:22:17;98720.50;;;9.08;100.00
18678;BME280;9469;51.114;13.914;2024-02-04T15:27:22;98722.81;;;8.96;100.00
18678;BME280;9469;51.114;13.914;2024-02-04T15:32:31;98713.06;;;8.91;100.00
18678;BME280;9469;51.114;13.914;2024-02-04T15:37:36;98716.72;;;8.95;100.00
18678;BME280;9469;51.114;13.914;2024-02-04T15:42:41;98713.84;;;8.92;100.00
18678;BME280;9469;51.114;13.914;2024-02-04T15:47:51;98714.94;;;8.91;100.00
18678;BME280;9469;51.114;13.914;2024-02-04T15:52:59;98702.81;;;8.85;100.00
18678;BME280;9469;51.114;13.914;2024-02-04T15:58:06;98717.44;;;8.82;100.00
18678;BME280;9469;51.114;13.914;2024-02-04T16:03:15;98716.25;;;8.75;100.00
18678;BME280;9469;51.114;13.914;2024-02-04T16:08:21;98734.31;;;8.73;100.00
18678;BME280;9469;51.114;13.914;2024-02-04T16:13:30;98735.88;;;8.74;100.00
18678;BME280;9469;51.114;13.914;2024-02-04T16:18:40;98736.22;;;8.67;100.00
18678;BME280;9469;51.114;13.914;2024-02-04T16:23:45;98729.38;;;8.66;100.00
18678;BME280;9469;51.114;13.914;2024-02-04T16:28:50;98717.72;;;8.62;100.00
18678;BME280;9469;51.114;13.914;2024-02-04T16:33:58;98716.19;;;8.61;100.00
18678;BME280;9469;51.114;13.914;2024-02-04T16:39:03;98730.28;;;8.56;100.00
18678;BME280;9469;51.114;13.914;2024-02-04T16:44:10;98729.84;;;8.49;100.00
18678;BME280;9469;51.114;13.914;2024-02-04T16:49:21;98729.06;;;8.49;100.00
18678;BME280;9469;51.114;13.914;2024-02-04T16:54:29;98723.81;;;8.44;100.00
18678;BME280;9469;51.114;13.914;2024-02-04T16:59:34;98726.38;;;8.30;100.00
18678;BME280;9469;51.114;13.914;2024-02-04T17:04:45;98724.75;;;8.34;100.00
18678;BME280;9469;51.114;13.914;2024-02-04T17:09:52;98728.34;;;8.20;100.00
18678;BME280;9469;51.114;13.914;2024-02-04T17:14:59;98725.78;;;8.10;100.00
18678;BME280;9469;51.114;13.914;2024-02-04T17:20:11;98728.63;;;7.94;100.00
18678;BME280;9469;51.114;13.914;2024-02-04T17:25:20;98713.38;;;7.86;100.00
18678;BME280;9469;51.114;13.914;2024-02-04T17:30:30;98709.19;;;7.80;100.00
18678;BME280;9469;51.114;13.914;2024-02-04T17:35:39;98713.97;;;7.78;100.00
18678;BME280;9469;51.114;13.914;2024-02-04T17:40:52;98704.56;;;7.67;100.00
18678;BME280;9469;51.114;13.914;2024-02-04T17:45:59;98700.84;;;7.68;100.00
18678;BME280;9469;51.114;13.914;2024-02-04T17:51:11;98688.41;;;7.69;100.00
18678;BME280;9469;51.114;13.914;2024-02-04T17:56:21;98680.84;;;7.57;100.00
18678;BME280;9469;51.114;13.914;2024-02-04T18:01:29;98673.41;;;7.59;100.00
18678;BME280;9469;51.114;13.914;2024-02-04T18:06:39;98689.94;;;7.75;100.00
18678;BME280;9469;51.114;13.914;2024-02-04T18:11:46;98686.47;;;7.74;100.00
18678;BME280;9469;51.114;13.914;2024-02-04T18:16:53;98689.47;;;7.68;100.00
18678;BME280;9469;51.114;13.914;2024-02-04T18:22:01;98672.28;;;7.65;100.00
18678;BME280;9469;51.114;13.914;2024-02-04T18:27:07;98688.00;;;7.57;100.00
18678;BME280;9469;51.114;13.914;2024-02-04T18:32:14;98694.69;;;7.49;100.00
18678;BME280;9469;51.114;13.914;2024-02-04T18:37:21;98689.00;;;7.37;100.00
18678;BME280;9469;51.114;13.914;2024-02-04T18:42:27;98685.78;;;7.40;100.00
18678;BME280;9469;51.114;13.914;2024-02-04T18:47:36;98699.66;;;7.27;100.00
18678;BME280;9469;51.114;13.914;2024-02-04T18:52:44;98690.75;;;7.18;100.00
18678;BME280;9469;51.114;13.914;2024-02-04T18:57:50;98688.59;;;7.20;100.00
18678;BME280;9469;51.114;13.914;2024-02-04T19:02:55;98680.13;;;7.23;100.00
18678;BME280;9469;51.114;13.914;2024-02-04T19:08:03;98668.06;;;7.12;100.00
18678;BME280;9469;51.114;13.914;2024-02-04T19:13:09;98666.00;;;7.04;100.00
18678;BME280;9469;51.114;13.914;2024-02-04T19:18:15;98659.28;;;7.16;100.00
18678;BME280;9469;51.114;13.914;2024-02-04T19:23:23;98676.59;;;6.99;100.00
18678;BME280;9469;51.114;13.914;2024-02-04T19:28:28;98671.78;;;7.06;100.00
18678;BME280;9469;51.114;13.914;2024-02-04T19:33:35;98643.28;;;7.03;100.00
18678;BME280;9469;51.114;13.914;2024-02-04T19:38:46;98651.72;;;7.05;100.00
18678;BME280;9469;51.114;13.914;2024-02-04T19:43:52;98639.59;;;6.99;100.00
18678;BME280;9469;51.114;13.914;2024-02-04T19:48:59;98622.59;;;7.10;100.00
18678;BME280;9469;51.114;13.914;2024-02-04T19:54:09;98626.28;;;7.09;100.00
18678;BME280;9469;51.114;13.914;2024-02-04T19:59:17;98621.00;;;7.09;100.00
18678;BME280;9469;51.114;13.914;2024-02-04T20:04:22;98598.00;;;7.33;100.00
18678;BME280;9469;51.114;13.914;2024-02-04T20:09:33;98615.09;;;7.17;100.00
18678;BME280;9469;51.114;13.914;2024-02-04T20:14:42;98616.81;;;7.32;100.00
18678;BME280;9469;51.114;13.914;2024-02-04T20:19:52;98594.56;;;7.33;100.00
18678;BME280;9469;51.114;13.914;2024-02-04T20:25:03;98600.75;;;7.23;100.00
18678;BME280;9469;51.114;13.914;2024-02-04T20:30:11;98599.06;;;7.32;100.00
18678;BME280;9469;51.114;13.914;2024-02-04T20:35:16;98605.25;;;7.22;100.00
18678;BME280;9469;51.114;13.914;2024-02-04T20:40:25;98588.50;;;7.32;100.00
18678;BME280;9469;51.114;13.914;2024-02-04T20:45:31;98594.78;;;7.36;100.00
18678;BME280;9469;51.114;13.914;2024-02-04T20:50:36;98582.19;;;7.28;100.00
18678;BME280;9469;51.114;13.914;2024-02-04T20:55:44;98570.88;;;7.22;100.00
18678;BME280;9469;51.114;13.914;2024-02-04T21:00:50;98567.31;;;7.32;100.00
18678;BME280;9469;51.114;13.914;2024-02-04T21:05:56;98567.09;;;7.29;100.00
18678;BME280;9469;51.114;13.914;2024-02-04T21:11:06;98554.50;;;7.20;100.00
18678;BME280;9469;51.114;13.914;2024-02-04T21:16:11;98552.56;;;7.26;100.00
18678;BME280;9469;51.114;13.914;2024-02-04T21:21:17;98543.47;;;7.37;100.00
18678;BME280;9469;51.114;13.914;2024-02-04T21:26:25;98532.34;;;7.35;100.00
18678;BME280;9469;51.114;13.914;2024-02-04T21:31:30;98529.13;;;7.38;100.00
18678;BME280;9469;51.114;13.914;2024-02-04T21:36:35;98509.06;;;7.37;100.00
18678;BME280;9469;51.114;13.914;2024-02-04T21:41:44;98496.81;;;7.41;100.00
18678;BME280;9469;51.114;13.914;2024-02-04T21:46:49;98481.88;;;7.50;100.00
18678;BME280;9469;51.114;13.914;2024-02-04T21:51:56;98473.31;;;7.58;100.00
18678;BME280;9469;51.114;13.914;2024-02-04T21:57:03;98456.78;;;7.66;100.00
18678;BME280;9469;51.114;13.914;2024-02-04T22:02:09;98457.78;;;7.70;100.00
18678;BME280;9469;51.114;13.914;2024-02-04T22:07:14;98440.88;;;7.85;100.00
18678;BME280;9469;51.114;13.914;2024-02-04T22:12:22;98431.06;;;7.85;100.00
18678;BME280;9469;51.114;13.914;2024-02-04T22:17:27;98429.41;;;7.89;100.00
18678;BME280;9469;51.114;13.914;2024-02-04T22:22:33;98410.34;;;8.06;100.00
18678;BME280;9469;51.114;13.914;2024-02-04T22:27:41;98409.09;;;8.17;100.00
18678;BME280;9469;51.114;13.914;2024-02-04T22:32:46;98398.25;;;8.32;100.00
18678;BME280;9469;51.114;13.914;2024-02-04T22:37:51;98390.31;;;8.46;100.00
18678;BME280;9469;51.114;13.914;2024-02-04T22:42:59;98370.88;;;8.64;100.00
18678;BME280;9469;51.114;13.914;2024-02-04T22:48:06;98356.25;;;8.80;100.00
18678;BME280;9469;51.114;13.914;2024-02-04T22:53:12;98382.78;;;8.80;100.00
18678;BME280;9469;51.114;13.914;2024-02-04T22:58:23;98359.50;;;8.91;100.00
18678;BME280;9469;51.114;13.914;2024-02-04T23:03:30;98365.94;;;8.98;100.00
18678;BME280;9469;51.114;13.914;2024-02-04T23:08:35;98361.44;;;8.99;100.00
18678;BME280;9469;51.114;13.914;2024-02-04T23:13:44;98355.13;;;9.08;100.00
18678;BME280;9469;51.114;13.914;2024-02-04T23:18:49;98351.38;;;9.09;100.00
18678;BME280;9469;51.114;13.914;2024-02-04T23:23:55;98359.25;;;9.14;100.00
18678;BME280;9469;51.114;13.914;2024-02-04T23:29:04;98348.16;;;9.12;100.00
18678;BME280;9469;51.114;13.914;2024-02-04T23:34:09;98352.88;;;9.15;100.00
18678;BME280;9469;51.114;13.914;2024-02-04T23:39:16;98363.34;;;9.20;100.00
18678;BME280;9469;51.114;13.914;2024-02-04T23:44:24;98349.09;;;9.16;100.00
18678;BME280;9469;51.114;13.914;2024-02-04T23:49:29;98373.38;;;9.23;100.00
18678;BME280;9469;51.114;13.914;2024-02-04T23:54:37;98349.97;;;9.25;100.00
18678;BME280;9469;51.114;13.914;2024-02-04T23:59:45;98362.59;;;9.20;100.00
